createdAt,value
2022-11-01T00:02:08.300Z,85.48
2022-11-01T00:04:35.031Z,85.76
2022-11-01T00:07:01.782Z,85.11
2022-11-01T00:09:28.373Z,86.14
2022-11-01T00:11:55.028Z,85.59
2022-11-01T00:14:21.946Z,85.57
2022-11-01T00:16:49.067Z,85.65
2022-11-01T00:19:15.859Z,85.65
2022-11-01T00:21:42.924Z,85.49
2022-11-01T00:24:10.056Z,85.55
2022-11-01T00:26:36.772Z,85.33
2022-11-01T00:29:04.013Z,85.33
2022-11-01T00:31:30.726Z,85.70
2022-11-01T00:33:57.427Z,85.20
2022-11-01T00:36:24.237Z,85.00
2022-11-01T00:38:52.367Z,84.70
2022-11-01T00:41:20.933Z,85.24
2022-11-01T00:43:53.543Z,84.97
2022-11-01T00:46:20.228Z,84.38
2022-11-01T00:48:47.083Z,83.62
2022-11-01T00:51:13.879Z,84.19
2022-11-01T00:53:40.644Z,83.07
2022-11-01T00:56:08.310Z,82.85
2022-11-01T00:58:35.625Z,82.69
2022-11-01T01:01:02.619Z,82.95
2022-11-01T01:03:29.599Z,81.95
2022-11-01T01:05:56.817Z,81.87
2022-11-01T01:08:23.892Z,81.83
2022-11-01T01:10:50.994Z,81.82
2022-11-01T01:13:18.041Z,81.52
2022-11-01T01:15:44.816Z,81.13
2022-11-01T01:18:12.657Z,81.78
2022-11-01T01:20:39.420Z,81.35
2022-11-01T01:23:06.181Z,81.41
2022-11-01T01:25:32.881Z,81.04
2022-11-01T01:27:59.921Z,80.72
2022-11-01T01:30:27.381Z,80.63
2022-11-01T01:32:54.227Z,80.84
2022-11-01T01:35:20.813Z,80.29
2022-11-01T01:37:47.443Z,80.88
2022-11-01T01:40:14.153Z,81.00
2022-11-01T01:42:42.948Z,80.55
2022-11-01T01:45:31.379Z,80.13
2022-11-01T01:48:09.778Z,80.86
2022-11-01T01:51:08.228Z,81.16
2022-11-01T01:53:38.717Z,80.70
2022-11-01T01:56:33.860Z,80.60
2022-11-01T01:59:05.326Z,80.13
2022-11-01T02:01:34.319Z,81.00
2022-11-01T02:04:02.627Z,80.02
2022-11-01T02:06:29.280Z,80.62
2022-11-01T02:08:59.781Z,80.85
2022-11-01T02:11:26.404Z,79.90
2022-11-01T02:13:53.118Z,80.54
2022-11-01T02:16:33.400Z,80.49
2022-11-01T02:19:17.937Z,80.51
2022-11-01T02:22:01.966Z,80.66
2022-11-01T02:25:01.455Z,80.42
2022-11-01T02:28:20.542Z,79.44
2022-11-01T02:30:56.467Z,80.00
2022-11-01T02:33:44.391Z,79.68
2022-11-01T02:36:24.781Z,79.56
2022-11-01T02:38:56.858Z,79.14
2022-11-01T02:42:31.024Z,79.90
2022-11-01T02:45:31.757Z,78.98
2022-11-01T02:48:00.356Z,79.17
2022-11-01T02:50:32.221Z,79.06
2022-11-01T02:53:00.660Z,78.36
2022-11-01T02:55:30.901Z,78.51
2022-11-01T02:58:04.612Z,78.89
2022-11-01T03:00:34.965Z,79.02
2022-11-01T03:03:31.106Z,78.58
2022-11-01T03:06:00.527Z,78.41
2022-11-01T03:08:37.370Z,79.25
2022-11-01T03:11:12.828Z,78.52
2022-11-01T03:13:58.015Z,78.62
2022-11-01T03:16:45.853Z,79.12
2022-11-01T03:19:39.192Z,78.43
2022-11-01T03:22:23.614Z,78.59
2022-11-01T03:25:30.413Z,78.39
2022-11-01T03:28:00.619Z,78.72
2022-11-01T03:30:31.648Z,78.68
2022-11-01T03:32:58.872Z,79.11
2022-11-01T03:35:29.451Z,78.31
2022-11-01T03:38:04.777Z,79.20
2022-11-01T03:40:34.411Z,79.08
2022-11-01T03:43:05.787Z,78.93
2022-11-01T03:45:37.961Z,78.98
2022-11-01T03:48:05.960Z,79.71
2022-11-01T03:50:33.177Z,80.41
2022-11-01T03:53:00.153Z,79.99
2022-11-01T03:55:26.774Z,80.88
2022-11-01T03:57:55.523Z,80.63
2022-11-01T04:00:33.400Z,81.10
2022-11-01T04:03:00.943Z,80.86
2022-11-01T04:05:29.565Z,81.01
2022-11-01T04:07:56.606Z,81.78
2022-11-01T04:10:25.180Z,81.50
2022-11-01T04:12:52.017Z,82.33
2022-11-01T04:15:38.659Z,81.96
2022-11-01T04:18:35.122Z,83.30
2022-11-01T04:21:06.661Z,82.45
2022-11-01T04:23:34.110Z,82.83
2022-11-01T04:26:01.642Z,83.84
2022-11-01T04:28:28.657Z,83.11
2022-11-01T04:30:55.552Z,83.88
2022-11-01T04:33:22.182Z,83.34
2022-11-01T04:35:48.988Z,83.39
2022-11-01T04:38:16.124Z,82.93
2022-11-01T04:40:43.654Z,83.09
2022-11-01T04:43:11.199Z,82.52
2022-11-01T04:45:38.164Z,82.47
2022-11-01T04:48:05.207Z,82.54
2022-11-01T04:50:33.307Z,81.87
2022-11-01T04:53:01.093Z,81.57
2022-11-01T04:55:28.605Z,81.89
2022-11-01T04:57:55.488Z,81.80
2022-11-01T05:00:25.333Z,81.43
2022-11-01T05:02:52.961Z,81.23
2022-11-01T05:05:19.964Z,80.46
2022-11-01T05:07:46.574Z,80.84
2022-11-01T05:10:13.257Z,80.14
2022-11-01T05:12:40.009Z,79.79
2022-11-01T05:15:07.438Z,79.92
2022-11-01T05:17:34.120Z,80.23
2022-11-01T05:20:00.933Z,79.79
2022-11-01T05:22:27.533Z,79.69
2022-11-01T05:24:54.364Z,80.42
2022-11-01T05:27:21.144Z,80.21
2022-11-01T05:29:47.744Z,80.53
2022-11-01T05:32:14.369Z,80.89
2022-11-01T05:34:41.115Z,81.24
2022-11-01T05:37:07.790Z,81.17
2022-11-01T05:39:34.360Z,81.33
2022-11-01T05:42:02.907Z,81.25
2022-11-01T05:44:29.849Z,81.31
2022-11-01T05:46:56.693Z,81.29
2022-11-01T05:49:23.496Z,81.09
2022-11-01T05:51:50.522Z,81.06
2022-11-01T05:54:17.166Z,81.69
2022-11-01T05:56:43.850Z,81.83
2022-11-01T05:59:10.465Z,81.41
2022-11-01T06:01:37.126Z,81.34
2022-11-01T06:04:03.943Z,80.51
2022-11-01T06:06:31.424Z,80.67
2022-11-01T06:08:59.821Z,80.75
2022-11-01T06:11:27.631Z,80.96
2022-11-01T06:13:55.548Z,80.71
2022-11-01T06:16:23.058Z,80.73
2022-11-01T06:18:50.129Z,80.17
2022-11-01T06:21:16.807Z,79.87
2022-11-01T06:23:48.494Z,79.38
2022-11-01T06:26:15.224Z,78.61
2022-11-01T06:28:41.925Z,78.55
2022-11-01T06:31:08.952Z,78.63
2022-11-01T06:33:35.690Z,78.43
2022-11-01T06:36:02.806Z,78.23
2022-11-01T06:38:29.506Z,78.14
2022-11-01T06:40:56.859Z,77.88
2022-11-01T06:43:23.478Z,77.58
2022-11-01T06:45:50.286Z,76.93
2022-11-01T06:48:16.923Z,76.23
2022-11-01T06:50:43.543Z,76.17
2022-11-01T06:53:10.457Z,76.12
2022-11-01T06:55:37.599Z,75.51
2022-11-01T06:58:05.052Z,74.26
2022-11-01T07:00:32.669Z,71.78
2022-11-01T07:03:07.635Z,69.80
2022-11-01T07:05:37.525Z,67.72
2022-11-01T07:08:07.380Z,66.94
2022-11-01T07:10:35.525Z,65.83
2022-11-01T07:13:04.064Z,65.60
2022-11-01T07:15:31.587Z,65.60
2022-11-01T07:18:00.363Z,66.89
2022-11-01T07:20:29.207Z,66.13
2022-11-01T07:23:04.746Z,66.89
2022-11-01T07:25:32.323Z,66.75
2022-11-01T07:27:59.817Z,67.18
2022-11-01T07:30:27.533Z,66.82
2022-11-01T07:32:58.818Z,66.40
2022-11-01T07:35:27.715Z,66.95
2022-11-01T07:37:59.378Z,67.37
2022-11-01T07:40:30.356Z,67.45
2022-11-01T07:43:00.098Z,67.85
2022-11-01T07:45:28.998Z,68.41
2022-11-01T07:48:06.794Z,68.29
2022-11-01T07:50:34.424Z,67.68
2022-11-01T07:53:01.814Z,68.17
2022-11-01T07:55:28.918Z,67.65
2022-11-01T07:57:55.908Z,67.39
2022-11-01T08:00:23.495Z,67.06
2022-11-01T08:02:50.784Z,65.74
2022-11-01T08:05:18.089Z,66.56
2022-11-01T08:07:44.689Z,67.17
2022-11-01T08:10:16.223Z,67.29
2022-11-01T08:12:42.881Z,68.18
2022-11-01T08:15:10.132Z,67.66
2022-11-01T08:17:36.814Z,66.70
2022-11-01T08:20:04.377Z,65.08
2022-11-01T08:22:31.109Z,63.48
2022-11-01T08:24:57.865Z,64.33
2022-11-01T08:27:24.557Z,63.31
2022-11-01T08:29:51.313Z,63.46
2022-11-01T08:32:22.102Z,63.38
2022-11-01T08:34:49.171Z,62.73
2022-11-01T08:37:15.943Z,61.88
2022-11-01T08:39:42.717Z,61.65
2022-11-01T08:42:11.445Z,60.98
2022-11-01T08:44:38.254Z,60.92
2022-11-01T08:47:05.124Z,60.67
2022-11-01T08:49:31.822Z,60.35
2022-11-01T08:51:58.497Z,59.88
2022-11-01T08:54:25.243Z,59.98
2022-11-01T08:56:51.854Z,59.63
2022-11-01T08:59:18.489Z,59.51
2022-11-01T09:01:45.372Z,58.81
2022-11-01T09:04:12.561Z,58.46
2022-11-01T09:06:39.195Z,58.85
2022-11-01T09:09:06.086Z,57.49
2022-11-01T09:11:32.725Z,58.21
2022-11-01T09:13:59.322Z,58.20
2022-11-01T09:16:26.069Z,56.78
2022-11-01T09:18:52.703Z,57.39
2022-11-01T09:21:19.438Z,56.20
2022-11-01T09:23:49.190Z,56.20
2022-11-01T09:26:15.867Z,56.71
2022-11-01T09:28:42.534Z,56.09
2022-11-01T09:31:21.124Z,55.70
2022-11-01T09:33:48.352Z,51.56
2022-11-01T09:36:15.073Z,48.06
2022-11-01T09:38:41.674Z,46.44
2022-11-01T09:41:29.665Z,45.01
2022-11-01T09:43:59.432Z,43.97
2022-11-01T09:46:31.421Z,43.23
2022-11-01T09:49:03.707Z,42.42
2022-11-01T09:51:30.538Z,42.08
2022-11-01T09:54:02.142Z,41.54
2022-11-01T09:56:36.583Z,41.24
2022-11-01T09:59:29.971Z,41.45
2022-11-01T10:02:25.739Z,40.81
2022-11-01T10:05:00.994Z,39.65
2022-11-01T10:07:52.611Z,40.25
2022-11-01T10:10:36.864Z,42.21
2022-11-01T10:13:37.523Z,42.11
2022-11-01T10:16:25.833Z,40.89
2022-11-01T10:19:03.052Z,40.31
2022-11-01T10:21:49.370Z,39.68
2022-11-01T10:24:36.744Z,39.98
2022-11-01T10:27:23.587Z,40.09
2022-11-01T10:30:17.494Z,39.70
2022-11-01T10:32:50.618Z,39.51
2022-11-01T10:35:30.989Z,38.53
2022-11-01T10:38:32.254Z,38.36
2022-11-01T10:43:49.852Z,37.64
2022-11-01T10:46:26.166Z,37.22
2022-11-01T10:48:57.849Z,36.99
2022-11-01T10:51:27.983Z,37.04
2022-11-01T10:54:02.559Z,36.79
2022-11-01T10:59:07.310Z,36.22
2022-11-01T11:01:42.735Z,36.26
2022-11-01T11:04:15.904Z,35.82
2022-11-01T11:06:43.778Z,36.06
2022-11-01T11:09:22.814Z,35.40
2022-11-01T11:11:50.887Z,35.58
2022-11-01T11:14:20.325Z,35.49
2022-11-01T11:16:51.787Z,35.14
2022-11-01T11:19:38.467Z,34.65
2022-11-01T11:22:09.597Z,33.67
2022-11-01T11:24:43.065Z,33.93
2022-11-01T11:27:21.342Z,34.19
2022-11-01T11:29:52.066Z,33.57
2022-11-01T11:32:26.550Z,33.31
2022-11-01T11:35:16.550Z,33.69
2022-11-01T11:37:55.536Z,32.29
2022-11-01T11:40:24.454Z,33.13
2022-11-01T11:42:53.783Z,33.13
2022-11-01T11:45:29.920Z,33.28
2022-11-01T11:48:14.138Z,33.10
2022-11-01T11:50:41.737Z,33.20
2022-11-01T11:53:23.395Z,32.93
2022-11-01T11:55:56.289Z,33.57
2022-11-01T11:58:36.253Z,32.66
2022-11-01T12:01:22.912Z,31.65
2022-11-01T12:03:53.928Z,32.00
2022-11-01T12:06:24.931Z,32.17
2022-11-01T12:09:33.129Z,32.84
2022-11-01T12:12:07.582Z,32.45
2022-11-01T12:14:38.601Z,32.58
2022-11-01T12:17:25.804Z,36.20
2022-11-01T12:22:39.926Z,36.64
2022-11-01T12:25:24.922Z,34.72
2022-11-01T12:27:56.516Z,35.12
2022-11-01T12:30:25.158Z,35.74
2022-11-01T12:33:00.368Z,35.52
2022-11-01T12:35:34.721Z,34.02
2022-11-01T12:38:07.530Z,35.28
2022-11-01T12:40:38.025Z,34.52
2022-11-01T12:43:16.643Z,33.60
2022-11-01T12:45:52.682Z,33.76
2022-11-01T12:48:59.814Z,33.63
2022-11-01T12:51:31.404Z,33.22
2022-11-01T12:54:12.291Z,33.41
2022-11-01T12:56:40.000Z,33.11
2022-11-01T12:59:12.262Z,33.63
2022-11-01T13:02:20.019Z,33.54
2022-11-01T13:05:02.459Z,33.82
2022-11-01T13:07:39.722Z,32.72
2022-11-01T13:10:09.096Z,32.63
2022-11-01T13:12:49.049Z,32.69
2022-11-01T13:15:30.068Z,34.20
2022-11-01T13:17:59.780Z,32.86
2022-11-01T13:20:53.356Z,32.38
2022-11-01T13:23:53.228Z,32.79
2022-11-01T13:26:25.636Z,32.78
2022-11-01T13:29:22.775Z,32.14
2022-11-01T13:32:18.156Z,33.61
2022-11-01T13:34:47.598Z,34.42
2022-11-01T13:37:30.126Z,34.39
2022-11-01T13:40:06.170Z,34.55
2022-11-01T13:42:41.863Z,34.38
2022-11-01T13:45:21.813Z,34.95
2022-11-01T13:47:51.233Z,34.11
2022-11-01T13:50:36.458Z,34.08
2022-11-01T13:53:31.630Z,34.07
2022-11-01T13:56:04.601Z,33.93
2022-11-01T13:58:33.490Z,34.04
2022-11-01T14:01:35.739Z,33.93
2022-11-01T14:04:11.500Z,34.40
2022-11-01T14:06:43.189Z,34.04
2022-11-01T14:09:27.966Z,35.00
2022-11-01T14:12:11.483Z,34.98
2022-11-01T14:14:47.467Z,35.05
2022-11-01T14:17:20.214Z,34.29
2022-11-01T14:20:08.686Z,34.38
2022-11-01T14:22:35.410Z,34.71
2022-11-01T14:25:31.742Z,35.56
2022-11-01T14:28:21.010Z,35.72
2022-11-01T14:30:49.726Z,36.07
2022-11-01T14:33:19.639Z,36.16
2022-11-01T14:35:52.876Z,36.08
2022-11-01T14:38:29.221Z,36.08
2022-11-01T14:40:59.116Z,36.53
2022-11-01T14:43:33.093Z,37.05
2022-11-01T14:46:02.865Z,37.38
2022-11-01T14:48:38.520Z,38.10
2022-11-01T14:51:21.943Z,39.53
2022-11-01T14:53:54.713Z,42.18
2022-11-01T14:56:30.577Z,44.38
2022-11-01T14:59:22.138Z,46.16
2022-11-01T15:01:51.868Z,47.07
2022-11-01T15:04:24.727Z,48.75
2022-11-01T15:06:52.106Z,49.21
2022-11-01T15:09:24.318Z,49.95
2022-11-01T15:11:54.305Z,50.18
2022-11-01T15:16:54.782Z,51.45
2022-11-01T15:19:28.003Z,51.38
2022-11-01T15:22:01.235Z,52.49
2022-11-01T15:27:07.609Z,52.87
2022-11-01T15:32:24.538Z,53.91
2022-11-01T15:34:53.047Z,53.62
2022-11-01T15:37:25.164Z,54.05
2022-11-01T15:39:51.889Z,54.58
2022-11-01T15:42:31.550Z,54.45
2022-11-01T15:44:58.347Z,54.33
2022-11-01T15:47:28.296Z,55.12
2022-11-01T15:50:06.154Z,55.15
2022-11-01T15:52:35.722Z,55.66
2022-11-01T15:55:21.105Z,55.82
2022-11-01T15:57:57.900Z,56.52
2022-11-01T16:00:34.048Z,56.84
2022-11-01T16:03:16.153Z,57.22
2022-11-01T16:05:48.889Z,57.21
2022-11-01T16:08:24.650Z,57.48
2022-11-01T16:10:51.487Z,57.99
2022-11-01T16:13:19.476Z,58.39
2022-11-01T16:16:02.545Z,58.44
2022-11-01T16:18:33.147Z,58.78
2022-11-01T16:21:21.457Z,58.61
2022-11-01T16:23:56.946Z,59.00
2022-11-01T16:26:23.626Z,59.53
2022-11-01T16:28:51.909Z,59.41
2022-11-01T16:31:29.081Z,59.77
2022-11-01T16:33:56.862Z,59.85
2022-11-01T16:36:32.355Z,60.41
2022-11-01T16:38:58.890Z,60.53
2022-11-01T16:41:39.613Z,60.19
2022-11-01T16:44:16.114Z,60.23
2022-11-01T16:46:42.853Z,60.92
2022-11-01T16:49:15.314Z,60.58
2022-11-01T16:51:42.056Z,60.86
2022-11-01T16:54:10.467Z,60.69
2022-11-01T16:56:42.687Z,60.80
2022-11-01T16:59:17.965Z,60.21
2022-11-01T17:01:45.471Z,59.69
2022-11-01T17:06:48.293Z,59.30
2022-11-01T17:09:16.018Z,59.25
2022-11-01T17:11:49.520Z,59.66
2022-11-01T17:14:17.933Z,59.43
2022-11-01T17:19:31.016Z,59.30
2022-11-01T17:21:59.748Z,60.27
2022-11-01T17:24:29.362Z,59.97
2022-11-01T17:26:59.126Z,60.41
2022-11-01T17:29:25.758Z,61.13
2022-11-01T17:31:52.275Z,60.77
2022-11-01T17:34:18.997Z,60.96
2022-11-01T17:36:48.610Z,60.26
2022-11-01T17:47:18.327Z,61.36
2022-11-01T17:52:20.177Z,62.06
2022-11-01T17:54:46.697Z,62.18
2022-11-01T17:57:15.733Z,62.05
2022-11-01T18:02:24.437Z,62.27
2022-11-01T18:04:51.042Z,63.11
2022-11-01T18:07:17.644Z,62.44
2022-11-01T18:09:44.305Z,62.51
2022-11-01T18:12:16.806Z,63.50
2022-11-01T18:14:58.153Z,62.40
2022-11-01T18:17:35.452Z,62.33
2022-11-01T18:20:28.519Z,62.62
2022-11-01T18:23:00.649Z,62.14
2022-11-01T18:25:45.972Z,61.77
2022-11-01T18:28:19.444Z,63.27
2022-11-01T18:33:43.059Z,62.67
2022-11-01T18:39:03.281Z,63.43
2022-11-01T18:41:30.205Z,63.32
2022-11-01T18:43:56.717Z,63.15
2022-11-01T18:46:26.720Z,62.34
2022-11-01T18:49:06.953Z,62.75
2022-11-01T18:51:34.282Z,63.43
2022-11-01T18:54:00.971Z,63.11
2022-11-01T18:56:27.515Z,62.16
2022-11-01T18:58:55.629Z,62.73
2022-11-01T19:01:33.446Z,62.08
2022-11-01T19:17:35.815Z,62.07
2022-11-01T19:25:25.765Z,63.47
2022-11-01T19:27:53.805Z,62.72
2022-11-01T19:33:03.728Z,63.66
2022-11-01T19:40:44.271Z,63.85
2022-11-01T19:43:21.294Z,63.51
2022-11-01T19:45:50.646Z,63.54
2022-11-01T19:48:20.152Z,63.58
2022-11-01T19:50:47.248Z,64.07
2022-11-01T19:53:34.090Z,64.42
2022-11-01T19:56:03.592Z,64.45
2022-11-01T19:58:37.229Z,64.05
2022-11-01T20:01:09.105Z,63.14
2022-11-01T20:03:39.557Z,63.52
2022-11-01T20:06:17.521Z,63.78
2022-11-01T20:08:45.431Z,63.28
2022-11-01T20:11:13.259Z,63.29
2022-11-01T20:13:39.897Z,63.47
2022-11-01T20:16:08.061Z,63.92
2022-11-01T20:18:34.691Z,63.94
2022-11-01T20:21:05.985Z,64.25
2022-11-01T20:23:33.901Z,63.97
2022-11-01T20:26:00.977Z,63.87
2022-11-01T20:28:27.701Z,63.94
2022-11-01T20:30:54.225Z,63.90
2022-11-01T20:33:20.769Z,64.19
2022-11-01T20:35:47.707Z,63.50
2022-11-01T20:38:14.234Z,64.60
2022-11-01T20:40:40.820Z,63.92
2022-11-01T20:43:07.691Z,64.96
2022-11-01T20:45:36.936Z,65.15
2022-11-01T20:48:03.960Z,65.17
2022-11-01T20:50:30.508Z,65.63
2022-11-01T20:52:57.040Z,65.79
2022-11-01T20:55:23.891Z,65.95
2022-11-01T20:57:51.125Z,65.83
2022-11-01T21:00:20.256Z,65.52
2022-11-01T21:02:46.930Z,66.37
2022-11-01T21:05:29.503Z,66.54
2022-11-01T21:08:11.461Z,66.04
2022-11-01T21:10:40.264Z,66.31
2022-11-01T21:13:27.382Z,66.38
2022-11-01T21:15:56.366Z,66.21
2022-11-01T21:18:26.290Z,66.40
2022-11-01T21:20:54.417Z,67.43
2022-11-01T21:23:21.076Z,66.64
2022-11-01T21:25:51.622Z,66.36
2022-11-01T21:28:28.048Z,66.75
2022-11-01T21:30:54.764Z,66.46
2022-11-01T21:33:40.904Z,67.37
2022-11-01T21:36:24.493Z,67.05
2022-11-01T21:38:52.892Z,67.32
2022-11-01T21:41:19.682Z,67.28
2022-11-01T21:43:46.264Z,67.22
2022-11-01T21:46:17.361Z,67.19
2022-11-01T21:48:43.857Z,67.32
2022-11-01T21:51:10.434Z,67.30
2022-11-01T21:53:38.112Z,68.01
2022-11-01T21:56:07.107Z,67.86
2022-11-01T21:58:36.743Z,67.91
2022-11-01T22:01:03.545Z,67.99
2022-11-01T22:03:30.836Z,68.04
2022-11-01T22:05:57.521Z,68.26
2022-11-01T22:08:24.110Z,68.79
2022-11-01T22:10:50.598Z,68.66
2022-11-01T22:13:19.340Z,68.36
2022-11-01T22:15:46.318Z,67.93
2022-11-01T22:18:12.788Z,67.55
2022-11-01T22:20:39.295Z,67.44
2022-11-01T22:23:08.804Z,67.41
2022-11-01T22:25:35.289Z,66.96
2022-11-01T22:28:06.229Z,67.54
2022-11-01T22:30:32.851Z,67.06
2022-11-01T22:32:59.427Z,66.40
2022-11-01T22:35:26.130Z,67.05
2022-11-01T22:37:53.958Z,66.84
2022-11-01T22:40:20.690Z,66.75
2022-11-01T22:42:56.657Z,66.74
2022-11-01T22:45:23.202Z,66.31
2022-11-01T22:47:49.899Z,66.14
2022-11-01T22:50:24.289Z,66.31
2022-11-01T22:52:50.888Z,65.82
2022-11-01T22:55:38.733Z,66.27
2022-11-01T22:58:26.521Z,65.29
2022-11-01T23:01:00.409Z,66.05
2022-11-01T23:03:36.840Z,65.16
2022-11-01T23:06:10.030Z,65.52
2022-11-01T23:08:42.002Z,65.83
2022-11-01T23:11:32.944Z,66.55
2022-11-01T23:14:21.085Z,65.32
2022-11-01T23:16:47.678Z,65.69
2022-11-01T23:19:14.473Z,65.90
2022-11-01T23:21:41.002Z,66.22
2022-11-01T23:24:08.098Z,67.08
2022-11-01T23:26:34.580Z,66.18
2022-11-01T23:29:02.220Z,67.36
2022-11-01T23:31:29.231Z,67.52
2022-11-01T23:33:55.881Z,67.16
2022-11-01T23:36:34.044Z,66.97
2022-11-01T23:39:04.374Z,66.73
2022-11-01T23:41:33.195Z,67.27
2022-11-01T23:44:01.485Z,66.48
2022-11-01T23:46:28.238Z,68.68
2022-11-01T23:49:00.790Z,69.79
2022-11-01T23:51:28.371Z,70.94
2022-11-01T23:53:56.099Z,72.02
2022-11-01T23:56:22.918Z,72.91
2022-11-01T23:59:15.724Z,72.55
